Time;durP1;ratioP1;P1;durP2;ratioP2;P2;SDS_P1;SDS_P2;PMS_P1;PMS_P2;Temp;Humidity;BMP_temperature;BMP_pressure;BME280_temperature;BME280_humidity;BME280_pressure;Samples;Min_cycle;Max_cycle;Signal;HPM_P1;HPM_P2
2020/12/15 00:00:06;;;;;;;9.30;3.55;;;9.70;99.90;;;9.37;99.60;100130.44;4165943;28;20083;-68
2020/12/15 00:02:07;;;;;;;10.98;4.07;;;9.70;99.90;;;9.28;99.71;100124.34;4199207;28;20028;-68
2020/12/15 00:04:08;;;;;;;7.88;4.03;;;9.70;99.90;;;9.25;100.00;100131.72;4169639;28;20084;-68
2020/12/15 00:06:09;;;;;;;7.50;3.03;;;9.70;99.90;;;9.17;100.00;100129.09;4168668;28;20030;-68
2020/12/15 00:08:09;;;;;;;8.45;3.95;;;9.60;99.90;;;9.20;100.00;100131.41;4168157;28;20060;-68
2020/12/15 00:10:10;;;;;;;12.65;5.40;;;9.60;99.90;;;9.27;99.77;100135.84;4168494;28;20436;-68
2020/12/15 00:12:11;;;;;;;13.80;5.03;;;9.60;99.90;;;9.26;99.15;100146.50;4168336;28;20044;-68
2020/12/15 00:14:12;;;;;;;17.52;6.13;;;9.60;99.90;;;9.21;99.61;100148.81;4152099;28;20028;-68
2020/12/15 00:16:17;;;;;;;12.57;5.90;;;9.60;99.90;;;9.19;99.28;100135.00;4169599;28;20025;-68
2020/12/15 00:18:18;;;;;;;10.88;4.82;;;9.60;99.90;;;9.19;99.18;100135.00;4168460;28;20032;-68
2020/12/15 00:20:19;;;;;;;13.27;4.72;;;9.60;99.90;;;9.12;98.70;100128.72;4168262;28;20034;-68
2020/12/15 00:22:20;;;;;;;11.18;3.50;;;9.50;99.90;;;9.15;98.75;100133.66;4151767;28;20030;-68
2020/12/15 00:24:21;;;;;;;21.85;6.30;;;9.60;99.90;;;9.25;97.26;100135.19;4168112;28;20044;-68
2020/12/15 00:26:23;;;;;;;17.98;6.00;;;9.50;99.90;;;9.14;97.71;100132.03;4169411;28;20029;-68
2020/12/15 00:28:24;;;;;;;14.35;5.32;;;9.50;99.90;;;9.11;97.92;100148.16;4168099;28;20087;-68
2020/12/15 00:30:25;;;;;;;9.93;4.28;;;9.50;99.90;;;9.13;98.36;100146.16;4169463;28;20026;-68
2020/12/15 00:32:26;;;;;;;11.93;3.28;;;9.60;99.90;;;9.20;98.31;100141.91;4169395;28;20040;-68
2020/12/15 00:34:27;;;;;;;7.60;2.30;;;9.60;99.90;;;9.30;98.17;100138.16;4169297;28;20505;-68
2020/12/15 00:36:28;;;;;;;9.30;3.08;;;9.60;99.90;;;9.27;98.04;100148.16;4151549;28;20128;-68
2020/12/15 00:38:29;;;;;;;8.32;2.58;;;9.60;99.90;;;9.24;98.26;100149.31;4168978;28;20037;-68
2020/12/15 00:40:30;;;;;;;8.18;2.08;;;9.70;99.90;;;9.22;98.75;100145.22;4168059;28;20416;-68
2020/12/15 00:42:31;;;;;;;8.88;2.80;;;9.70;99.90;;;9.26;99.06;100149.13;4167671;28;20049;-68
2020/12/15 00:44:33;;;;;;;14.70;3.45;;;9.70;99.90;;;9.40;98.23;100132.72;4169080;28;20455;-68
2020/12/15 00:46:34;;;;;;;10.65;2.60;;;9.70;99.90;;;9.31;98.11;100131.91;4167990;28;20101;-68
2020/12/15 00:48:35;;;;;;;5.70;2.25;;;9.80;99.90;;;9.36;98.75;100144.56;4167876;28;20029;-68
2020/12/15 00:50:36;;;;;;;9.75;2.60;;;9.70;99.90;;;9.33;98.38;100137.00;4167931;28;20029;-68
2020/12/15 00:52:37;;;;;;;6.65;3.00;;;9.70;99.90;;;9.31;98.32;100138.97;4167541;28;20037;-68
2020/12/15 00:54:37;;;;;;;7.63;3.33;;;9.70;99.90;;;9.15;98.76;100133.66;4169050;28;20026;-68
2020/12/15 00:56:41;;;;;;;6.00;2.83;;;9.70;99.90;;;9.24;98.39;100135.34;4169057;28;20447;-68
2020/12/15 00:58:42;;;;;;;7.80;2.45;;;9.60;99.90;;;9.23;97.80;100131.03;4167817;28;20370;-68
2020/12/15 01:00:43;;;;;;;7.72;2.53;;;9.70;99.90;;;9.24;97.57;100132.69;4167668;28;20416;-68
2020/12/15 01:02:44;;;;;;;6.03;2.40;;;9.70;99.90;;;9.25;97.42;100123.84;4167146;28;20057;-68
2020/12/15 01:04:44;;;;;;;7.93;2.60;;;9.70;99.90;;;9.23;97.50;100128.41;4167633;28;20520;-68
2020/12/15 01:06:49;;;;;;;11.65;2.83;;;9.60;99.90;;;9.23;97.84;100134.50;4167714;28;20056;-68
2020/12/15 01:08:50;;;;;;;8.80;3.53;;;9.60;99.90;;;9.21;97.49;100133.03;4167270;28;20546;-68
2020/12/15 01:10:53;;;;;;;4.95;2.88;;;9.60;99.90;;;9.11;98.03;100140.25;4167715;28;20025;-68
2020/12/15 01:12:54;;;;;;;9.43;2.78;;;9.60;99.90;;;9.05;97.87;100146.97;4168807;28;20067;-68
2020/12/15 01:14:55;;;;;;;4.30;2.70;;;9.60;99.90;;;9.00;97.34;100146.63;4168713;28;20030;-68
2020/12/15 01:16:56;;;;;;;8.23;3.78;;;9.60;99.90;;;9.04;97.56;100136.63;4167438;28;20075;-68
2020/12/15 01:18:56;;;;;;;5.40;2.55;;;9.50;99.90;;;9.02;96.13;100128.88;4168769;28;20032;-68
2020/12/15 01:20:57;;;;;;;6.47;3.22;;;9.50;99.90;;;8.96;97.22;100124.25;4168937;28;20032;-68
2020/12/15 01:22:58;;;;;;;7.28;2.78;;;9.50;99.90;;;8.93;97.57;100121.94;4168453;28;20545;-68
2020/12/15 01:24:59;;;;;;;9.43;3.25;;;9.50;99.90;;;9.00;98.17;100135.28;4168804;28;20040;-68
2020/12/15 01:27:00;;;;;;;6.90;3.88;;;9.40;99.90;;;9.06;97.95;100129.38;4168677;28;20026;-68
2020/12/15 01:29:01;;;;;;;5.78;3.72;;;9.50;99.90;;;8.97;98.19;100125.91;4167501;28;20029;-68
2020/12/15 01:31:02;;;;;;;7.30;3.30;;;9.40;99.90;;;8.92;97.85;100122.94;4168581;28;20061;-68
2020/12/15 01:33:03;;;;;;;6.80;2.65;;;9.40;99.90;;;8.95;97.17;100117.38;4167238;28;20420;-68
2020/12/15 01:35:04;;;;;;;6.10;3.42;;;9.30;99.90;;;8.86;97.33;100127.03;4168400;28;20041;-68
2020/12/15 01:37:05;;;;;;;8.85;3.47;;;9.30;99.90;;;8.89;97.47;100131.97;4167354;28;20184;-68
2020/12/15 01:39:06;;;;;;;10.93;4.13;;;9.30;99.90;;;8.92;97.70;100137.91;4168289;28;20142;-68
2020/12/15 01:41:07;;;;;;;15.02;5.03;;;9.30;99.90;;;8.91;98.51;100134.44;4168316;28;20037;-69
2020/12/15 01:43:08;;;;;;;12.43;4.43;;;9.30;99.90;;;8.94;98.70;100143.81;4168222;28;20037;-68
2020/12/15 01:45:09;;;;;;;10.05;3.70;;;9.40;99.90;;;9.10;98.59;100157.03;4167168;28;20030;-68
2020/12/15 01:47:13;;;;;;;5.28;3.10;;;9.40;99.90;;;8.98;98.21;100151.22;4168368;28;20025;-68
2020/12/15 01:49:17;;;;;;;16.75;3.67;;;9.50;99.90;;;9.04;98.94;100160.28;4167154;28;20467;-68
2020/12/15 01:51:18;;;;;;;9.50;3.40;;;9.50;99.90;;;9.10;99.16;100157.03;4167034;28;20032;-68
2020/12/15 01:53:19;;;;;;;12.13;3.28;;;9.50;99.90;;;9.08;99.21;100159.78;4166876;28;20029;-68
2020/12/15 01:55:20;;;;;;;11.48;3.22;;;9.60;99.90;;;9.13;98.94;100170.69;4167159;28;20030;-68
2020/12/15 01:57:22;;;;;;;8.70;3.22;;;9.60;99.90;;;9.03;99.55;100164.72;4167087;28;20025;-68
2020/12/15 01:59:23;;;;;;;7.78;3.20;;;9.60;99.90;;;9.08;99.65;100172.94;4166928;28;20088;-68
2020/12/15 02:01:25;;;;;;;12.63;3.67;;;9.60;99.90;;;9.11;99.11;100170.00;4167133;28;20099;-68
2020/12/15 02:03:26;;;;;;;6.85;3.00;;;9.60;99.90;;;9.19;98.81;100174.47;4168102;28;20550;-68
2020/12/15 02:05:26;;;;;;;9.20;3.10;;;9.60;99.90;;;9.20;98.62;100181.41;4167052;28;20029;-68
2020/12/15 02:07:27;;;;;;;8.88;3.08;;;9.70;99.90;;;9.28;98.60;100186.66;4168024;28;20382;-68
2020/12/15 02:09:28;;;;;;;7.97;3.22;;;9.70;99.90;;;9.16;98.85;100182.69;4167962;28;20056;-68
2020/12/15 02:11:29;;;;;;;10.02;3.80;;;9.70;99.90;;;9.24;99.11;100180.91;4166956;28;20092;-68
2020/12/15 02:13:31;;;;;;;10.48;3.70;;;9.70;99.90;;;9.24;99.21;100177.44;4150560;28;20030;-68
2020/12/15 02:15:31;;;;;;;12.27;4.47;;;9.70;99.90;;;9.26;98.31;100167.56;4169545;28;20034;-68
2020/12/15 02:17:33;;;;;;;15.80;4.32;;;9.70;99.90;;;9.30;97.86;100163.63;4170209;28;20440;-68
2020/12/15 02:19:34;;;;;;;11.10;3.90;;;9.70;99.90;;;9.28;98.03;100161.19;4170257;28;20049;-68
2020/12/15 02:21:57;;;;;;;9.15;3.95;;;9.70;99.90;;;9.21;98.39;100154.06;4171419;28;20029;-68
2020/12/15 02:23:58;;;;;;;19.08;6.30;;;9.70;99.90;;;9.07;98.28;100163.44;4171034;28;20030;-68
2020/12/15 02:26:10;;;;;;;20.48;5.75;;;9.70;99.90;;;9.13;98.97;100183.84;4170355;28;20028;-68
2020/12/15 02:28:11;;;;;;;18.40;6.43;;;9.60;99.90;;;9.17;98.97;100185.16;4170010;28;20034;-68
2020/12/15 02:30:12;;;;;;;16.02;5.72;;;9.70;99.90;;;9.11;99.01;100185.78;4170055;28;20068;-68
2020/12/15 02:32:13;;;;;;;22.92;7.72;;;9.60;99.90;;;9.17;99.17;100185.16;4170282;28;20033;-68
2020/12/15 02:34:15;;;;;;;14.43;6.40;;;9.70;99.90;;;9.25;98.83;100189.63;4170144;28;20040;-68
2020/12/15 02:36:16;;;;;;;15.88;5.32;;;9.70;99.90;;;9.12;98.89;100189.25;4171281;28;20482;-68
2020/12/15 02:38:17;;;;;;;15.68;5.75;;;9.70;99.90;;;9.18;98.82;100199.13;4169613;28;20905;-68
2020/12/15 02:40:18;;;;;;;18.13;6.72;;;9.60;99.90;;;9.29;98.31;100199.66;4171329;28;20068;-68
2020/12/15 02:42:19;;;;;;;21.00;6.18;;;9.70;99.90;;;9.19;98.53;100191.09;4169579;28;20468;-68
2020/12/15 02:44:21;;;;;;;17.08;6.25;;;9.70;99.90;;;9.14;99.13;100197.81;4169888;28;20092;-68
2020/12/15 02:46:22;;;;;;;15.25;6.47;;;9.70;99.90;;;9.31;98.12;100191.59;4170945;28;20053;-68
2020/12/15 02:48:23;;;;;;;18.20;6.43;;;9.70;99.90;;;9.50;96.95;100204.47;4171093;28;20022;-68
2020/12/15 02:50:25;;;;;;;11.23;6.53;;;9.80;99.90;;;9.36;97.70;100197.22;4170952;28;20026;-68
2020/12/15 02:52:26;;;;;;;17.73;7.03;;;9.80;99.90;;;9.43;97.34;100204.31;4169779;28;20032;-68
2020/12/15 02:54:26;;;;;;;18.77;6.82;;;9.80;99.90;;;9.22;97.81;100190.78;4169236;28;20026;-68
2020/12/15 02:56:27;;;;;;;10.38;5.60;;;9.80;99.90;;;9.13;98.93;100194.38;4171013;28;20029;-68
2020/12/15 02:58:28;;;;;;;12.63;5.88;;;9.70;99.90;;;9.13;99.00;100190.91;4169763;28;20028;-68
2020/12/15 03:00:29;;;;;;;11.63;5.68;;;9.70;99.90;;;9.19;99.46;100201.63;4170804;28;20036;-68
2020/12/15 03:02:30;;;;;;;10.63;5.47;;;9.70;99.90;;;9.11;98.98;100206.84;4170741;28;20029;-68
2020/12/15 03:04:31;;;;;;;10.52;5.40;;;9.60;99.90;;;9.05;98.74;100206.66;4170889;28;20021;-68
2020/12/15 03:06:32;;;;;;;9.00;4.68;;;9.60;99.90;;;9.12;98.74;100207.66;4170724;28;20029;-68
2020/12/15 03:08:33;;;;;;;13.00;6.78;;;9.60;99.90;;;9.12;98.39;100220.81;4170420;28;20060;-68
2020/12/15 03:10:33;;;;;;;7.72;4.35;;;9.50;99.90;;;9.08;96.25;100206.34;4169383;28;20043;-68
2020/12/15 03:12:34;;;;;;;9.70;5.13;;;9.50;99.90;;;8.97;96.33;100209.25;4170871;28;20036;-68
2020/12/15 03:14:35;;;;;;;8.05;4.47;;;9.40;99.90;;;8.88;96.56;100211.84;4169619;28;20108;-68
2020/12/15 03:16:36;;;;;;;11.38;4.35;;;9.40;99.90;;;8.80;96.92;100219.72;4169490;28;20029;-68
2020/12/15 03:18:37;;;;;;;19.48;11.80;;;9.30;99.90;;;8.75;97.51;100223.81;4170542;28;20026;-68
2020/12/15 03:20:38;;;;;;;14.40;5.32;;;9.30;99.90;;;8.67;98.21;100221.13;4170724;28;20449;-68
2020/12/15 03:22:39;;;;;;;8.40;5.15;;;9.20;99.90;;;8.61;97.90;100219.94;4152605;28;20030;-68
2020/12/15 03:24:41;;;;;;;14.35;5.43;;;9.20;99.90;;;8.65;97.87;100231.81;4170605;28;20025;-68
2020/12/15 03:26:42;;;;;;;12.20;4.40;;;9.10;99.90;;;8.61;98.37;100222.56;4168405;28;20075;-68
2020/12/15 03:28:43;;;;;;;10.20;4.35;;;9.10;99.90;;;8.65;98.77;100226.53;4169384;28;20029;-68
2020/12/15 03:30:43;;;;;;;11.80;5.07;;;9.10;99.90;;;8.74;99.05;100219.50;4169372;28;20030;-68
2020/12/15 03:32:44;;;;;;;5.85;3.42;;;9.10;99.90;;;8.74;98.94;100228.25;4169260;28;20025;-68
2020/12/15 03:34:45;;;;;;;8.15;3.90;;;9.20;99.90;;;8.73;98.12;100226.56;4170148;28;20037;-68
2020/12/15 03:36:46;;;;;;;8.65;3.55;;;9.20;99.90;;;8.74;97.55;100222.97;4170578;28;20029;-68
2020/12/15 03:38:47;;;;;;;8.05;3.28;;;9.10;99.90;;;8.75;97.43;100227.22;4168943;28;20033;-68
2020/12/15 03:40:48;;;;;;;10.90;4.40;;;9.20;99.90;;;8.66;98.04;100220.28;4170378;28;20037;-68
2020/12/15 03:42:49;;;;;;;11.52;4.13;;;9.10;99.90;;;8.64;98.06;100229.31;4169970;28;20045;-68
2020/12/15 03:44:50;;;;;;;14.70;3.80;;;9.10;99.90;;;8.68;98.39;100231.50;4168912;28;20595;-68
2020/12/15 03:46:51;;;;;;;8.38;3.83;;;9.10;99.90;;;8.66;98.28;100222.91;4170269;28;20034;-68
2020/12/15 03:48:53;;;;;;;9.30;3.95;;;9.10;99.90;;;8.66;98.57;100225.53;4170207;28;20032;-68
2020/12/15 03:50:55;;;;;;;12.32;3.75;;;9.10;99.90;;;8.79;97.59;100233.84;4152734;28;20034;-68
2020/12/15 03:52:56;;;;;;;13.70;3.20;;;9.10;99.90;;;8.72;97.91;100237.25;4169692;28;20150;-68
2020/12/15 03:54:56;;;;;;;12.00;3.03;;;9.20;99.90;;;8.72;97.90;100243.31;4201942;28;20021;-68
2020/12/15 03:56:57;;;;;;;16.70;4.30;;;9.20;99.90;;;8.68;98.44;100247.25;4185301;28;20036;-68
2020/12/15 03:58:58;;;;;;;11.73;3.03;;;9.20;99.90;;;8.68;98.75;100259.59;4169995;28;20496;-68
2020/12/15 04:00:59;;;;;;;16.92;3.38;;;9.10;99.90;;;8.72;98.41;100238.06;4169929;28;20037;-68
2020/12/15 04:03:00;;;;;;;11.00;3.17;;;9.20;99.90;;;8.83;97.75;100239.63;4168810;28;20111;-68
2020/12/15 04:05:01;;;;;;;11.55;3.35;;;9.20;99.90;;;8.76;97.42;100255.19;4169986;28;20037;-68
2020/12/15 04:07:02;;;;;;;12.60;3.20;;;9.20;99.90;;;8.73;97.40;100249.41;4168619;28;20026;-68
2020/12/15 04:09:03;;;;;;;10.90;2.92;;;9.20;99.90;;;8.69;98.06;100248.09;4151879;28;20045;-68
2020/12/15 04:11:04;;;;;;;12.90;3.35;;;9.20;99.90;;;8.81;97.32;100249.47;4169881;28;20049;-68
2020/12/15 04:13:05;;;;;;;10.07;2.53;;;9.20;99.90;;;8.76;97.11;100246.47;4169854;28;20040;-68
2020/12/15 04:15:06;;;;;;;7.63;2.38;;;9.20;99.90;;;8.75;97.20;100244.84;4168577;28;20040;-68
2020/12/15 04:17:11;;;;;;;9.13;2.40;;;9.10;99.90;;;8.76;95.78;100254.34;4151953;28;20037;-68
2020/12/15 04:19:12;;;;;;;9.75;2.90;;;9.10;99.90;;;8.73;95.90;100259.94;4152415;28;20069;-68
2020/12/15 04:21:13;;;;;;;5.53;2.30;;;9.10;99.90;;;8.68;95.69;100262.22;4168494;28;20029;-68
2020/12/15 04:23:13;;;;;;;13.18;2.45;;;9.10;99.90;;;8.63;96.01;100254.78;4169209;28;20370;-68
2020/12/15 04:25:14;;;;;;;11.73;2.85;;;9.00;99.90;;;8.53;96.58;100254.06;4169455;28;20069;-68
2020/12/15 04:27:15;;;;;;;9.07;2.65;;;8.90;99.90;;;8.54;96.68;100260.97;4169658;28;20176;-68
2020/12/15 04:29:16;;;;;;;6.13;2.10;;;8.90;99.90;;;8.53;96.27;100267.22;4168350;28;20065;-68
2020/12/15 04:31:17;;;;;;;6.50;2.10;;;8.90;99.90;;;8.54;96.06;100276.72;4169472;28;20022;-68
2020/12/15 04:33:19;;;;;;;9.30;2.45;;;8.90;99.90;;;8.54;94.76;100265.41;4169383;28;20030;-68
2020/12/15 04:35:21;;;;;;;11.88;2.55;;;8.90;99.90;;;8.52;94.32;100267.34;4168243;28;20022;-68
2020/12/15 04:37:22;;;;;;;9.02;2.13;;;8.90;99.90;;;8.41;94.25;100257.94;4169473;28;20036;-68
2020/12/15 04:39:24;;;;;;;9.20;2.67;;;8.80;99.90;;;8.36;94.44;100252.31;4167830;28;20026;-68
2020/12/15 04:41:25;;;;;;;6.30;2.17;;;8.80;99.90;;;8.28;94.10;100260.13;4169225;28;20065;-68
2020/12/15 04:43:29;;;;;;;8.57;2.17;;;8.70;99.90;;;8.23;94.90;100278.97;4151461;28;20061;-68
2020/12/15 04:45:30;;;;;;;7.85;2.10;;;8.70;99.90;;;8.37;94.40;100279.41;4168228;28;20061;-68
2020/12/15 04:47:41;;;;;;;10.10;3.15;;;8.60;99.90;;;8.25;95.11;100265.66;4169307;28;20048;-68
2020/12/15 04:49:55;;;;;;;18.08;3.72;;;8.60;99.90;;;8.39;94.70;100278.28;4168414;28;20041;-68
2020/12/15 04:52:05;;;;;;;9.45;2.80;;;8.60;99.90;;;8.24;93.76;100256.16;4169364;28;20076;-68
2020/12/15 04:54:10;;;;;;;7.05;2.53;;;8.60;99.90;;;8.27;93.81;100280.31;4167662;28;20029;-68
2020/12/15 04:56:30;;;;;;;10.15;2.42;;;8.60;99.90;;;8.11;93.88;100272.28;4200345;28;20280;-68
2020/12/15 04:58:33;;;;;;;11.32;2.47;;;8.50;99.90;;;8.12;94.78;100278.38;4169181;28;20034;-68
2020/12/15 05:00:36;;;;;;;7.32;2.05;;;8.50;99.90;;;8.04;95.02;100275.66;4151171;28;20116;-68
2020/12/15 05:02:48;;;;;;;7.80;2.55;;;8.40;99.90;;;8.03;94.89;100280.13;4167640;28;20042;-68
2020/12/15 05:04:50;;;;;;;9.82;3.22;;;8.40;99.90;;;7.94;95.12;100285.44;4167982;28;20022;-68
2020/12/15 05:06:54;;;;;;;7.22;3.60;;;8.40;99.90;;;7.93;95.17;100291.66;4151411;28;20445;-68
2020/12/15 05:08:55;;;;;;;7.72;2.70;;;8.30;99.90;;;8.03;95.26;100289.78;4151127;28;20022;-68
2020/12/15 05:10:56;;;;;;;12.68;3.28;;;8.30;99.90;;;8.04;95.37;100286.16;4184089;28;20408;-68
2020/12/15 05:12:57;;;;;;;11.85;2.63;;;8.30;99.90;;;8.01;94.76;100289.91;4169090;28;20026;-68
2020/12/15 05:14:58;;;;;;;10.52;3.53;;;8.30;99.90;;;7.91;94.24;100283.94;4169147;28;20540;-68
2020/12/15 05:16:59;;;;;;;5.25;2.75;;;8.30;99.90;;;7.80;94.61;100292.84;4151172;28;20030;-68
2020/12/15 05:19:04;;;;;;;10.57;3.05;;;8.20;99.90;;;7.78;94.27;100284.31;4168994;28;20087;-68
2020/12/15 05:21:17;;;;;;;9.65;2.22;;;8.20;99.90;;;7.79;94.56;100280.69;4167703;28;20025;-68
2020/12/15 05:23:21;;;;;;;8.43;2.33;;;8.20;99.90;;;7.70;95.25;100291.28;4167102;28;20040;-68
2020/12/15 05:25:28;;;;;;;8.63;3.15;;;8.10;99.90;;;7.91;94.07;100293.63;4167525;28;20064;-68
2020/12/15 05:27:32;;;;;;;7.97;2.30;;;8.10;99.90;;;7.79;93.41;100291.19;4168910;28;20029;-69
2020/12/15 05:29:33;;;;;;;8.32;2.20;;;8.20;99.90;;;7.72;94.28;100295.41;4168847;28;20027;-68
2020/12/15 05:31:40;;;;;;;5.03;2.00;;;8.10;99.90;;;7.66;95.23;100288.13;4167375;28;20025;-68
2020/12/15 05:33:52;;;;;;;5.40;1.80;;;8.10;99.90;;;7.78;94.14;100296.59;4168874;28;20515;-68
2020/12/15 05:35:53;;;;;;;7.78;2.58;;;8.10;99.90;;;7.68;94.72;100299.28;4167455;28;20033;-68
2020/12/15 05:38:06;;;;;;;7.90;2.05;;;8.00;99.90;;;7.63;94.78;100304.16;4168480;28;20033;-68
2020/12/15 05:40:07;;;;;;;11.63;2.88;;;8.00;99.90;;;7.65;95.19;100294.31;4167676;28;20029;-68
2020/12/15 05:42:09;;;;;;;7.05;2.20;;;8.00;99.90;;;7.59;95.02;100302.78;4167353;28;20115;-68
2020/12/15 05:44:12;;;;;;;9.90;2.05;;;8.00;99.90;;;7.44;95.00;100306.88;4168632;28;20026;-68
2020/12/15 05:46:21;;;;;;;8.07;1.77;;;7.90;99.90;;;7.53;94.23;100300.75;4167357;28;20021;-68
2020/12/15 05:48:26;;;;;;;5.13;1.50;;;7.90;99.90;;;7.52;94.43;100311.41;4167521;28;20029;-68
2020/12/15 05:50:28;;;;;;;6.00;1.80;;;7.90;99.90;;;7.46;95.09;100314.63;4167186;28;20022;-68
2020/12/15 05:52:29;;;;;;;6.25;2.17;;;7.80;99.90;;;7.44;94.41;100312.13;4168265;28;20130;-68
2020/12/15 05:54:29;;;;;;;8.23;1.77;;;7.80;99.90;;;7.41;94.78;100312.44;4167211;28;20445;-68
2020/12/15 05:56:31;;;;;;;9.80;2.08;;;7.80;99.90;;;7.50;94.88;100313.34;4167377;28;20026;-68
2020/12/15 05:58:32;;;;;;;8.23;2.47;;;7.80;99.90;;;7.47;93.98;100318.88;4167326;28;20033;-68
2020/12/15 06:00:33;;;;;;;7.53;2.17;;;7.80;99.90;;;7.44;95.22;100325.25;4167164;28;20030;-68
2020/12/15 06:02:34;;;;;;;6.18;2.60;;;7.80;99.90;;;7.34;95.21;100319.25;4166814;28;20113;-68
2020/12/15 06:04:38;;;;;;;5.85;2.25;;;7.80;99.90;;;7.40;94.70;100330.94;4167292;28;20548;-68
2020/12/15 06:06:41;;;;;;;5.80;2.60;;;7.70;99.90;;;7.34;94.44;100318.41;4168456;28;20025;-68
2020/12/15 06:08:42;;;;;;;9.35;2.47;;;7.70;99.90;;;7.28;94.39;100322.44;4166771;28;20276;-68
2020/12/15 06:10:49;;;;;;;7.05;3.55;;;7.70;99.90;;;7.37;94.28;100339.13;4167084;28;20090;-68
2020/12/15 06:12:52;;;;;;;11.43;3.80;;;7.70;99.90;;;7.47;93.40;100338.09;4167291;28;20029;-69
2020/12/15 06:14:53;;;;;;;8.38;3.33;;;7.60;99.90;;;7.39;93.54;100330.13;4167152;28;20032;-69
2020/12/15 06:16:55;;;;;;;8.13;2.45;;;7.70;99.90;;;7.35;93.51;100327.94;4168188;28;20496;-68
2020/12/15 06:18:56;;;;;;;6.82;3.13;;;7.70;99.90;;;7.36;93.77;100330.41;4167148;28;20455;-68
2020/12/15 06:20:57;;;;;;;6.50;2.65;;;7.60;99.90;;;7.32;93.54;100334.28;4150609;28;20034;-69
2020/12/15 06:22:59;;;;;;;5.43;2.38;;;7.60;99.90;;;7.38;93.24;100340.78;4166733;28;20025;-68
2020/12/15 06:25:00;;;;;;;6.30;2.25;;;7.60;99.90;;;7.34;93.41;100345.47;4166990;28;20123;-68
2020/12/15 06:27:02;;;;;;;6.45;2.58;;;7.60;99.90;;;7.33;93.10;100348.25;4168294;28;20069;-68
2020/12/15 06:29:06;;;;;;;9.50;2.55;;;7.60;99.90;;;7.34;93.71;100348.09;4167142;28;20512;-68
2020/12/15 06:31:07;;;;;;;10.88;2.40;;;7.60;99.90;;;7.33;93.83;100353.47;4167062;28;20104;-68
2020/12/15 06:33:14;;;;;;;3.80;2.00;;;7.60;99.90;;;7.23;94.89;100350.91;4166883;28;20485;-68
2020/12/15 06:35:25;;;;;;;4.60;1.80;;;7.60;99.90;;;7.14;94.66;100354.38;4167195;28;20029;-68
2020/12/15 06:37:26;;;;;;;9.57;3.70;;;7.60;99.90;;;7.17;93.32;100357.53;4167893;28;20472;-68
2020/12/15 06:39:30;;;;;;;9.30;2.53;;;7.50;99.90;;;7.21;93.24;100358.91;4166949;28;20116;-68
2020/12/15 06:41:31;;;;;;;7.78;2.30;;;7.50;99.90;;;7.14;93.34;100363.06;4166829;28;20068;-68
2020/12/15 06:43:32;;;;;;;6.80;2.97;;;7.50;99.90;;;7.03;93.02;100349.31;4166615;28;20057;-68
2020/12/15 06:45:32;;;;;;;6.85;2.45;;;7.40;99.90;;;7.04;92.13;100350.97;4167031;28;20040;-68
2020/12/15 06:47:38;;;;;;;13.95;3.05;;;7.40;99.90;;;7.02;92.76;100360.75;4166908;28;20397;-68
2020/12/15 06:49:38;;;;;;;8.35;3.60;;;7.40;99.90;;;7.01;91.73;100356.50;4166772;28;20026;-68
2020/12/15 06:51:39;;;;;;;8.65;4.60;;;7.40;99.90;;;6.96;92.12;100362.16;4168127;28;20108;-68
2020/12/15 06:53:42;;;;;;;9.93;3.95;;;7.30;99.90;;;6.89;92.69;100370.75;4166530;28;20048;-68
2020/12/15 06:55:44;;;;;;;8.48;5.22;;;7.30;99.90;;;6.92;92.75;100367.84;4166509;28;20026;-68
2020/12/15 06:57:56;;;;;;;7.35;3.13;;;7.20;99.90;;;7.07;91.66;100376.91;4166670;28;20417;-68
2020/12/15 07:00:00;;;;;;;6.20;3.00;;;7.30;99.90;;;6.90;91.66;100373.22;4151286;28;20121;-68
2020/12/15 07:02:13;;;;;;;7.72;3.15;;;7.30;99.90;;;6.96;91.04;100375.28;4168493;28;20026;-68
2020/12/15 07:04:20;;;;;;;5.43;3.35;;;7.20;99.90;;;6.82;91.70;100378.34;4169598;28;20151;-68
2020/12/15 07:06:21;;;;;;;7.57;3.67;;;7.20;99.90;;;6.82;92.68;100388.00;4169775;28;20089;-68
2020/12/15 07:08:22;;;;;;;8.18;5.25;;;7.20;99.90;;;6.85;91.73;100379.84;4169478;28;20036;-68
2020/12/15 07:10:29;;;;;;;14.93;7.30;;;7.20;99.90;;;6.84;91.31;100380.84;4172230;28;20022;-68
2020/12/15 07:12:30;;;;;;;9.18;4.68;;;7.10;99.90;;;6.75;91.06;100379.88;4181228;28;20407;-68
2020/12/15 07:14:30;;;;;;;12.55;5.72;;;7.10;99.90;;;6.63;90.98;100383.63;4178742;28;20041;-68
2020/12/15 07:16:32;;;;;;;6.78;3.55;;;7.00;99.90;;;6.51;90.65;100380.31;4169646;28;20025;-68
2020/12/15 07:18:33;;;;;;;10.75;4.45;;;7.00;99.90;;;6.43;92.47;100377.56;4169371;28;20112;-68
2020/12/15 07:20:34;;;;;;;10.38;5.53;;;6.90;99.90;;;6.45;93.72;100391.34;4169622;28;20528;-70
2020/12/15 07:22:35;;;;;;;13.30;6.40;;;6.90;99.90;;;6.51;93.47;100385.53;4169074;28;20037;-69
2020/12/15 07:24:39;;;;;;;10.55;5.63;;;6.90;99.90;;;6.63;92.92;100384.44;4169241;28;20025;-70
2020/12/15 07:26:42;;;;;;;9.43;5.85;;;6.90;99.90;;;6.57;93.62;100385.00;4168681;28;20851;-69
2020/12/15 07:28:44;;;;;;;13.18;5.50;;;6.90;99.90;;;6.72;93.68;100377.53;4167918;28;20044;-70
2020/12/15 07:30:47;;;;;;;12.80;6.80;;;7.00;99.90;;;6.65;93.75;100382.53;4170268;28;20067;-69
2020/12/15 07:32:49;;;;;;;14.65;7.93;;;7.10;99.90;;;6.56;94.96;100387.75;4170070;28;20033;-69
2020/12/15 07:35:13;;;;;;;11.55;5.82;;;7.00;99.90;;;6.63;95.83;100394.13;4169035;28;20036;-69
2020/12/15 07:37:20;;;;;;;11.65;6.15;;;7.00;99.90;;;6.83;95.16;100400.16;4168832;28;20069;-69
2020/12/15 07:39:21;;;;;;;9.60;5.20;;;7.10;99.90;;;6.86;94.65;100395.47;4169019;28;20523;-69
2020/12/15 07:41:22;;;;;;;7.90;4.35;;;7.20;99.90;;;6.82;95.09;100398.47;4170156;28;20033;-69
2020/12/15 07:43:23;;;;;;;6.97;3.78;;;7.20;99.90;;;6.87;95.14;100401.53;4167760;28;20084;-69
2020/12/15 07:45:25;;;;;;;8.43;3.90;;;7.20;99.90;;;6.91;95.00;100398.47;4166391;28;20032;-69
2020/12/15 07:47:27;;;;;;;8.70;3.30;;;7.20;99.90;;;6.92;95.23;100404.56;4168701;28;20459;-69
2020/12/15 07:49:28;;;;;;;7.45;3.13;;;7.20;99.90;;;6.88;95.28;100395.31;4169590;28;20022;-69
2020/12/15 07:51:32;;;;;;;9.75;3.42;;;7.30;99.90;;;7.01;95.35;100408.94;4169760;28;20024;-69
2020/12/15 07:53:34;;;;;;;7.95;3.30;;;7.30;99.90;;;6.99;95.30;100410.91;4151822;28;20030;-69
2020/12/15 07:55:35;;;;;;;9.10;4.15;;;7.30;99.90;;;6.96;95.77;100405.94;4196454;28;20020;-69
2020/12/15 07:57:39;;;;;;;15.48;5.47;;;7.30;99.90;;;6.93;95.99;100414.09;4169644;28;20029;-69
2020/12/15 07:59:42;;;;;;;10.52;4.65;;;7.30;99.90;;;6.85;96.08;100412.16;4168676;28;20021;-69
2020/12/15 08:01:43;;;;;;;12.98;4.53;;;7.30;99.90;;;6.90;95.99;100417.00;4168025;28;20124;-69
2020/12/15 08:03:44;;;;;;;10.82;4.50;;;7.30;99.90;;;6.98;95.25;100414.47;4169454;28;20018;-69
2020/12/15 08:05:45;;;;;;;6.07;3.72;;;7.30;99.90;;;7.06;94.61;100431.16;4169462;28;20022;-69
2020/12/15 08:07:51;;;;;;;10.40;4.28;;;7.40;99.90;;;7.05;95.03;100432.13;4169328;28;20025;-69
2020/12/15 08:09:57;;;;;;;6.53;3.08;;;7.40;99.90;;;6.99;95.30;100421.38;4168436;28;20104;-70
2020/12/15 08:11:58;;;;;;;8.18;3.22;;;7.40;99.90;;;7.09;95.61;100438.75;4168719;28;20025;-69
2020/12/15 08:14:07;;;;;;;9.77;3.15;;;7.40;99.90;;;7.06;95.43;100438.19;4167768;28;20504;-69
2020/12/15 08:16:08;;;;;;;4.70;2.85;;;7.40;99.90;;;7.13;94.73;100440.13;4167197;28;20019;-69
2020/12/15 08:18:11;;;;;;;6.40;4.00;;;7.50;99.90;;;7.20;94.51;100437.75;4166744;28;20033;-70
2020/12/15 08:20:15;;;;;;;5.65;3.38;;;7.50;99.90;;;7.21;94.72;100452.53;4167238;28;20026;-68
2020/12/15 08:22:19;;;;;;;13.23;4.50;;;7.60;99.90;;;7.28;94.47;100448.38;4165723;28;20088;-69
2020/12/15 08:24:26;;;;;;;6.35;3.88;;;7.70;99.90;;;7.29;94.22;100457.88;4166743;28;20403;-69
2020/12/15 08:26:32;;;;;;;8.45;3.90;;;7.80;99.90;;;7.32;94.46;100465.47;4169452;28;20022;-69
2020/12/15 08:28:32;;;;;;;12.57;4.40;;;7.80;99.90;;;7.33;94.89;100471.56;4151981;28;20081;-70
2020/12/15 08:30:34;;;;;;;7.47;3.67;;;7.80;99.90;;;7.30;94.95;100471.84;4169151;28;20028;-70
2020/12/15 08:32:34;;;;;;;8.70;4.00;;;7.80;99.90;;;7.21;95.26;100463.00;4167944;28;20544;-69
2020/12/15 08:34:35;;;;;;;10.60;3.83;;;7.80;99.90;;;7.28;95.84;100476.41;4168043;28;20036;-70
2020/12/15 08:36:49;;;;;;;7.70;3.97;;;7.80;99.90;;;7.37;95.11;100473.75;4167925;28;20060;-69